Latest Weather Observations for Mackay

IDQ60801

Issued at 9:02 pm EST Saturday 25 February 2017 (issued every 30 minutes, with the page automatically refreshed every 10 minutes)

About weather observations | Map of weather stations | Latest weather observations for QLD | Other Formats
Station Details ID: 033119 Name: MACKAY M.O Lat: -21.12 Lon: 149.22 Height: 30.26 m
Data from the previous 72 hours. | See also: Recent months at Mackay
Date/Time
EST
Temp
°C
App
Temp
°C
Dew
Point
°C
Rel
Hum
%
Delta-T
°C
Wind Press
QNH
hPa
Press
MSL
hPa
Rain since
9am
mm
Dir  Spd
km/h
Gust
km/h
Spd
kts
Gust
kts
25/09:00pm 27.6 29.4 22.5 74 3.5 SE 17 22 9 12 1011.7 1011.5 0.0
25/08:30pm 27.6 29.2 22.1 72 3.7 SE 17 26 9 14 1011.8 1011.5 0.0
25/08:00pm 27.8 29.9 22.5 73 3.6 ESE 15 26 8 14 1011.7 1011.4 0.0
25/07:30pm 27.5 29.1 22.2 73 3.6 SE 17 26 9 14 1011.5 1011.2 0.0
25/07:00pm 27.3 29.1 21.8 72 3.7 SE 15 26 8 14 1011.2 1010.9 0.0
25/06:30pm 27.5 29.1 21.5 70 4.0 ESE 15 28 8 15 1011.1 1010.8 0.0
25/06:00pm 27.8 28.7 20.9 66 4.6 SE 17 26 9 14 1010.8 1010.6 0.0
25/05:30pm 28.0 29.5 21.3 67 4.5 SE 15 24 8 13 1010.6 1010.4 0.0
25/05:00pm 28.1 29.4 21.6 68 4.4 SE 17 30 9 16 1010.6 1010.4 0.0
25/04:30pm 29.2 30.6 21.9 64 4.9 SE 17 28 9 15 1010.4 1010.2 0.0
25/04:00pm 29.1 29.6 20.0 58 6.0 SE 17 32 9 17 1010.4 1010.2 0.0
25/03:30pm 29.3 30.2 22.0 64 4.9 SE 20 30 11 16 1010.4 1010.2 0.0
25/03:00pm 29.6 30.5 21.5 61 5.4 SE 19 30 10 16 1010.5 1010.3 0.0
25/02:30pm 29.6 30.6 21.8 63 5.3 SE 19 32 10 17 1010.7 1010.5 0.0
25/02:00pm 29.3 29.9 21.0 61 5.5 SSE 19 33 10 18 1011.2 1010.9 0.0
25/01:30pm 30.0 31.3 22.4 63 5.2 SSE 19 30 10 16 1011.7 1011.4 0.0
25/01:00pm 29.1 29.4 20.8 61 5.5 SSE 20 32 11 17 1011.9 1011.6 0.0
25/12:30pm 29.8 31.6 22.5 65 5.0 SSE 17 30 9 16 1012.3 1012.0 0.0
25/12:00pm 29.9 31.2 22.3 63 5.2 SSE 19 30 10 16 1012.6 1012.3 0.0
25/11:30am 29.9 30.9 21.8 62 5.5 SE 19 30 10 16 1013.0 1012.7 0.0
25/11:00am 29.6 30.7 21.3 61 5.6 SE 17 32 9 17 1013.3 1013.0 0.0
25/10:30am 29.8 31.3 22.0 63 5.3 SE 17 28 9 15 1013.4 1013.1 0.0
25/10:00am 29.4 30.2 21.4 62 5.4 SE 19 30 10 16 1013.5 1013.2 0.0
25/09:30am 29.8 31.6 22.5 65 5.0 SE 17 30 9 16 1013.6 1013.3 0.0
25/09:00am 29.1 30.4 21.6 64 5.0 SE 17 24 9 13 1013.5 1013.2 1.2
25/08:30am 28.8 30.3 21.3 64 5.0 SE 15 24 8 13 1013.5 1013.2 1.0
25/08:00am 29.0 31.3 22.0 66 4.7 ESE 13 24 7 13 1013.4 1013.1 1.0
25/07:30am 28.5 31.7 23.0 72 3.8 ESE 11 20 6 11 1013.1 1012.8 1.0
25/07:00am 28.0 31.1 22.9 74 3.5 SE 11 17 6 9 1012.8 1012.5 1.0
25/06:30am 27.1 29.4 22.1 74 3.4 ESE 13 20 7 11 1012.5 1012.2 1.0
25/06:00am 27.3 29.9 22.7 76 3.1 ESE 13 22 7 12 1012.2 1011.9 1.0
25/05:30am 27.0 29.3 22.8 78 2.9 E 15 24 8 13 1011.9 1011.6 1.0
25/05:00am 27.2 29.8 22.6 76 3.1 E 13 20 7 11 1011.9 1011.6 1.0
25/04:30am 27.1 29.0 22.7 77 3.0 E 17 24 9 13 1011.8 1011.5 1.0
25/04:00am 27.3 30.3 23.3 79 2.7 ESE 13 20 7 11 1011.8 1011.5 1.0
25/03:30am 27.2 29.7 23.2 79 2.7 E 15 24 8 13 1011.9 1011.6 1.0
25/03:00am 27.2 29.6 23.0 78 2.9 E 15 22 8 12 1012.0 1011.7 1.0
25/02:30am 27.1 30.0 23.1 79 2.7 E 13 20 7 11 1012.0 1011.7 1.0
25/02:00am 26.7 30.1 23.4 82 2.3 ESE 11 17 6 9 1012.1 1011.8 1.0
25/01:30am 26.8 29.7 23.9 84 2.0 E 15 24 8 13 1012.3 1012.0 1.0
25/01:00am 26.2 29.0 23.7 86 1.7 ENE 15 24 8 13 1012.4 1012.1 1.0
25/12:30am 27.4 30.4 23.4 79 2.7 E 13 20 7 11 1012.8 1012.5 0.8
25/12:00am 27.4 29.8 23.0 77 3.0 E 15 20 8 11 1012.9 1012.6 0.8
 
Date/Time
EST
Temp
°C
App
Temp
°C
Dew
Point
°C
Rel
Hum
%
Delta-T
°C
Wind Press
QNH
hPa
Press
MSL
hPa
Rain since
9am
mm
Dir  Spd
km/h
Gust
km/h
Spd
kts
Gust
kts
24/11:30pm 27.5 30.1 23.3 78 2.9 E 15 20 8 11 1013.3 1013.0 0.8
24/11:00pm 27.5 30.2 22.9 76 3.1 ESE 13 20 7 11 1013.5 1013.2 0.8
24/10:30pm 27.6 29.8 23.2 77 3.0 E 17 22 9 12 1013.6 1013.3 0.8
24/10:00pm 27.6 30.4 23.6 79 2.7 ESE 15 24 8 13 1013.5 1013.2 0.8
24/09:30pm 27.6 30.7 23.6 79 2.7 ESE 13 22 7 12 1013.6 1013.3 0.8
24/09:00pm 27.8 30.8 23.4 77 3.0 ESE 13 24 7 13 1013.4 1013.1 0.8
24/08:30pm 27.4 30.3 23.2 78 2.9 ESE 13 20 7 11 1013.2 1012.9 0.8
24/08:00pm 27.3 30.7 24.0 82 2.3 E 13 20 7 11 1013.1 1012.8 0.8
24/07:30pm 27.2 30.5 23.2 79 2.7 ESE 11 17 6 9 1012.9 1012.6 0.8
24/07:00pm 26.7 30.6 24.2 86 1.7 ESE 11 20 6 11 1012.8 1012.5 0.8
24/06:30pm 26.2 29.6 23.3 84 2.0 ESE 11 17 6 9 1012.9 1012.6 0.8
24/06:00pm 26.2 28.4 23.3 84 2.0 ESE 17 28 9 15 1012.7 1012.4 0.8
24/05:30pm 26.5 29.7 24.3 88 1.5 E 15 22 8 12 1012.5 1012.2 0.8
24/05:00pm 26.7 31.0 24.9 90 1.3 E 11 19 6 10 1012.4 1012.1 0.8
24/04:30pm 27.1 28.2 23.1 79 2.7 E 22 33 12 18 1012.4 1012.1 0.0
24/04:00pm 28.4 31.3 23.8 76 3.2 SE 15 22 8 12 1012.3 1012.0 0.0
24/03:30pm 29.4 32.4 24.0 72 3.7 SE 15 26 8 14 1012.2 1011.9 0.0
24/03:00pm 29.5 32.3 23.7 71 4.0 SE 15 24 8 13 1012.3 1012.0 0.0
24/02:30pm 29.2 31.3 24.1 74 3.5 SE 20 28 11 15 1012.6 1012.3 0.0
24/02:00pm 29.5 31.6 24.1 72 3.8 SSE 20 30 11 16 1012.8 1012.5 0.0
24/01:30pm 29.6 31.8 24.2 73 3.8 SSE 20 30 11 16 1013.2 1012.9 0.0
24/01:00pm 29.3 28.9 22.3 66 4.7 S 28 39 15 21 1013.4 1013.1 0.0
24/12:30pm 28.9 30.1 24.5 77 3.1 SSE 26 41 14 22 1013.8 1013.5 0.0
24/12:02pm 29.1 29.9 24.4 76 3.3 SSE 28 46 15 25 1014.1 1013.8 0.0
24/12:00pm 29.1 30.2 24.4 76 3.3 SSE 26 41 14 22 1014.1 1013.8 0.0
24/11:30am 28.0 27.9 22.9 74 3.5 SSE 28 39 15 21 1014.4 1014.1 0.0
24/11:00am 28.0 29.3 24.0 79 2.8 SSE 24 39 13 21 1014.8 1014.5 0.0
24/10:30am 27.9 30.1 25.5 87 1.7 SSE 24 37 13 20 1014.9 1014.6 0.0
24/10:00am 26.3 28.1 24.2 88 1.4 SE 22 33 12 18 1014.9 1014.6 0.0
24/09:30am 28.1 29.2 24.3 80 2.6 SSE 26 39 14 21 1014.6 1014.3 0.0
24/09:00am 27.8 29.5 24.6 83 2.2 SSE 24 35 13 19 1014.4 1014.1 1.2
24/08:30am 26.9 29.1 24.9 89 1.4 S 22 32 12 17 1014.3 1014.0 1.2
24/08:00am 26.6 29.1 24.8 90 1.3 S 20 32 11 17 1014.3 1014.0 1.2
24/07:30am 26.2 28.4 24.8 92 1.0 S 22 32 12 17 1014.2 1013.9 1.2
24/07:00am 25.2 28.1 24.5 96 0.5 S 17 26 9 14 1013.9 1013.6 1.2
24/06:30am 25.1 28.0 24.4 96 0.5 S 17 24 9 13 1013.9 1013.6 1.2
24/06:00am 25.1 28.1 24.6 97 0.3 S 17 26 9 14 1013.8 1013.5 1.2
24/05:30am 25.0 27.5 24.5 97 0.3 S 19 26 10 14 1013.5 1013.2 1.2
24/05:00am 25.0 27.6 24.0 94 0.7 S 17 26 9 14 1013.4 1013.1 1.0
24/04:30am 26.4 28.6 23.3 83 2.1 S 17 26 9 14 1013.3 1013.0 0.2
24/04:00am 27.5 29.3 23.5 79 2.7 SSE 20 35 11 19 1013.3 1013.0 0.2
24/03:30am 27.5 29.9 23.7 80 2.6 SSE 17 28 9 15 1013.2 1012.9 0.2
24/03:00am 27.4 29.2 23.2 78 2.9 SSE 19 32 10 17 1013.3 1013.0 0.2
24/02:30am 27.4 29.7 23.4 79 2.7 SE 17 26 9 14 1013.6 1013.3 0.2
24/02:00am 27.1 30.2 23.6 81 2.4 SE 13 20 7 11 1013.9 1013.6 0.2
24/01:30am 27.5 31.0 23.5 79 2.7 ESE 11 20 6 11 1014.2 1013.9 0.2
24/01:00am 27.4 29.6 22.6 75 3.3 SE 15 24 8 13 1014.5 1014.2 0.2
24/12:30am 27.4 30.1 23.4 79 2.7 SSE 15 24 8 13 1014.8 1014.5 0.2
24/12:00am 27.5 30.0 23.1 77 3.0 SE 15 20 8 11 1015.1 1014.8 0.2
 
Date/Time
EST
Temp
°C
App
Temp
°C
Dew
Point
°C
Rel
Hum
%
Delta-T
°C
Wind Press
QNH
hPa
Press
MSL
hPa
Rain since
9am
mm
Dir  Spd
km/h
Gust
km/h
Spd
kts
Gust
kts
23/11:30pm 27.5 30.2 22.9 76 3.1 SE 13 24 7 13 1015.2 1014.9 0.2
23/11:00pm 27.6 30.4 23.0 76 3.1 SE 13 24 7 13 1015.1 1014.8 0.2
23/10:30pm 27.5 30.6 23.5 79 2.7 ESE 13 22 7 12 1015.1 1014.8 0.2
23/10:00pm 27.6 30.7 23.6 79 2.7 ESE 13 26 7 14 1015.0 1014.7 0.2
23/09:30pm 27.7 30.5 23.7 79 2.8 ESE 15 28 8 15 1015.1 1014.8 0.2
23/09:00pm 27.7 29.5 23.3 77 3.0 ESE 19 28 10 15 1014.9 1014.6 0.2
23/08:30pm 27.9 30.3 23.7 78 2.9 ESE 17 30 9 16 1014.8 1014.5 0.2
23/08:00pm 27.8 30.1 23.4 77 3.0 ESE 17 28 9 15 1014.5 1014.2 0.2
23/07:30pm 27.9 30.7 23.7 78 2.9 ESE 15 28 8 15 1014.1 1013.8 0.2
23/07:00pm 27.9 30.5 23.3 76 3.1 ESE 15 24 8 13 1013.8 1013.5 0.2
23/06:30pm 27.9 30.6 23.5 77 3.0 ESE 15 24 8 13 1013.6 1013.3 0.2
23/06:00pm 28.2 30.7 23.1 74 3.5 ESE 15 24 8 13 1013.4 1013.1 0.2
23/05:30pm 28.7 31.7 23.4 73 3.6 ESE 13 22 7 12 1013.3 1013.0 0.2
23/05:00pm 28.9 31.4 23.1 71 4.0 SE 15 24 8 13 1013.1 1012.8 0.2
23/04:30pm 29.3 31.2 23.5 71 4.0 SE 19 30 10 16 1013.0 1012.7 0.2
23/04:00pm 29.5 31.4 23.7 71 4.0 SSE 20 32 11 17 1012.7 1012.4 0.2
23/03:30pm 29.1 31.0 23.5 72 3.9 SE 19 32 10 17 1012.7 1012.4 0.2
23/03:00pm 29.7 32.0 24.1 72 3.9 SE 19 35 10 19 1013.1 1012.8 0.2
23/02:30pm 29.8 31.8 24.0 71 4.0 SSE 20 32 11 17 1013.6 1013.3 0.2
23/02:00pm 29.6 30.9 24.0 72 3.9 SSE 24 33 13 18 1013.9 1013.6 0.2
23/01:30pm 29.8 31.7 24.4 73 3.8 SSE 22 39 12 21 1014.2 1013.9 0.2
23/01:00pm 29.5 30.7 23.9 72 3.9 SSE 24 43 13 23 1014.1 1013.8 0.2
23/12:30pm 29.5 30.4 23.9 72 3.9 SSE 26 41 14 22 1014.4 1014.1 0.2
23/12:00pm 29.8 31.3 24.4 73 3.8 SSE 24 39 13 21 1014.7 1014.4 0.2
23/11:30am 29.1 29.5 23.8 73 3.7 SSE 28 41 15 22 1015.0 1014.7 0.2
23/11:00am 29.4 30.7 24.7 76 3.3 SSE 26 41 14 22 1015.2 1014.9 0.2
23/10:30am 28.7 30.0 24.0 76 3.3 SSE 24 41 13 22 1015.4 1015.1 0.2
23/10:00am 28.5 29.6 23.6 75 3.4 SSE 24 35 13 19 1015.7 1015.4 0.2
23/09:30am 28.1 29.6 23.7 77 3.0 SSE 22 33 12 18 1015.8 1015.5 0.2
23/09:00am 27.9 30.5 24.9 84 2.1 S 20 32 11 17 1015.8 1015.5 1.0
23/08:30am 27.1 28.7 23.3 80 2.6 S 20 30 11 16 1015.6 1015.3 1.0
23/08:00am 27.3 28.9 23.3 79 2.7 SSE 20 30 11 16 1015.3 1015.0 1.0
23/07:30am 27.8 29.4 23.2 76 3.1 SSE 20 37 11 20 1015.0 1014.7 1.0
23/07:00am 27.8 29.7 23.8 79 2.8 SSE 20 32 11 17 1014.6 1014.3 1.0
23/06:30am 27.6 29.5 23.4 78 2.9 SE 19 32 10 17 1014.5 1014.2 1.0
23/06:00am 27.5 29.0 23.1 77 3.0 SE 20 33 11 18 1014.1 1013.8 1.0
23/05:30am 27.5 29.0 23.1 77 3.0 SE 20 37 11 20 1013.8 1013.5 1.0
23/05:00am 27.5 28.9 22.9 76 3.1 SE 20 32 11 17 1013.5 1013.2 1.0
23/04:30am 27.4 28.9 23.0 77 3.0 SE 20 35 11 19 1013.2 1012.9 1.0
23/04:00am 27.3 29.1 23.3 79 2.7 SE 19 30 10 16 1013.1 1012.8 1.0
23/03:30am 27.4 28.8 22.8 76 3.1 SE 20 32 11 17 1013.0 1012.7 1.0
23/03:00am 27.2 29.4 23.2 79 2.7 SE 17 28 9 15 1013.2 1012.9 1.0
23/02:30am 27.4 29.3 23.4 79 2.7 SE 19 28 10 15 1013.3 1013.0 1.0
23/02:00am 27.4 29.3 23.4 79 2.7 SE 19 30 10 16 1013.5 1013.2 1.0
23/01:30am 27.4 29.1 23.4 79 2.7 SE 20 33 11 18 1013.8 1013.5 1.0
23/01:00am 27.4 29.4 23.6 80 2.6 SE 19 28 10 15 1014.1 1013.8 1.0
23/12:30am 27.3 29.5 24.0 82 2.3 ESE 19 33 10 18 1014.3 1014.0 1.0
23/12:00am 26.8 29.4 24.6 88 1.5 ESE 19 32 10 17 1014.4 1014.1 1.0
 
Date/Time
EST
Temp
°C
App
Temp
°C
Dew
Point
°C
Rel
Hum
%
Delta-T
°C
Wind Press
QNH
hPa
Press
MSL
hPa
Rain since
9am
mm
Dir  Spd
km/h
Gust
km/h
Spd
kts
Gust
kts
22/11:30pm 25.5 26.4 23.9 91 1.1 E 26 35 14 19 1014.7 1014.4 1.0
22/11:00pm 26.4 28.8 23.7 85 1.9 E 17 24 9 13 1014.9 1014.6 0.6
22/10:30pm 25.3 27.5 23.2 88 1.4 ESE 17 26 9 14 1014.9 1014.6 0.6
22/10:00pm 26.6 28.7 23.7 84 2.0 SE 19 33 10 18 1014.8 1014.5 0.6
22/09:30pm 26.2 27.1 22.7 81 2.4 ESE 22 33 12 18 1014.5 1014.2 0.6

Other Formats:

Comma delimited format used in spreadsheet applications
http://www.bom.gov.au/fwo/IDQ60801/IDQ60801.94367.axf

JavaScript Object Notation format (JSON) in row-major order
http://www.bom.gov.au/fwo/IDQ60801/IDQ60801.94367.json